sensor_id;sensor_type;location;lat;lon;timestamp;temperature;humidity
7998;DHT22;4044;49.814;7.828;2023-08-08T00:01:41;12.40;98.20
7998;DHT22;4044;49.814;7.828;2023-08-08T00:04:09;12.40;98.60
7998;DHT22;4044;49.814;7.828;2023-08-08T00:06:35;12.30;98.70
7998;DHT22;4044;49.814;7.828;2023-08-08T00:09:01;12.30;98.40
7998;DHT22;4044;49.814;7.828;2023-08-08T00:11:27;12.20;99.90
7998;DHT22;4044;49.814;7.828;2023-08-08T00:13:53;12.10;99.30
7998;DHT22;4044;49.814;7.828;2023-08-08T00:16:18;12.00;99.90
7998;DHT22;4044;49.814;7.828;2023-08-08T00:18:44;12.00;99.80
7998;DHT22;4044;49.814;7.828;2023-08-08T00:21:09;11.90;99.90
7998;DHT22;4044;49.814;7.828;2023-08-08T00:23:35;11.90;99.60
7998;DHT22;4044;49.814;7.828;2023-08-08T00:26:00;11.90;99.90
7998;DHT22;4044;49.814;7.828;2023-08-08T00:28:26;11.90;99.90
7998;DHT22;4044;49.814;7.828;2023-08-08T00:30:51;11.80;99.90
7998;DHT22;4044;49.814;7.828;2023-08-08T00:33:17;11.80;99.90
7998;DHT22;4044;49.814;7.828;2023-08-08T00:35:43;11.70;99.90
7998;DHT22;4044;49.814;7.828;2023-08-08T00:38:10;11.70;99.90
7998;DHT22;4044;49.814;7.828;2023-08-08T00:40:35;11.60;99.90
7998;DHT22;4044;49.814;7.828;2023-08-08T00:43:01;11.60;99.90
7998;DHT22;4044;49.814;7.828;2023-08-08T00:45:27;11.60;99.90
7998;DHT22;4044;49.814;7.828;2023-08-08T00:47:53;11.60;99.90
7998;DHT22;4044;49.814;7.828;2023-08-08T00:50:19;11.50;99.90
7998;DHT22;4044;49.814;7.828;2023-08-08T00:52:45;11.50;99.90
7998;DHT22;4044;49.814;7.828;2023-08-08T00:55:11;11.50;99.90
7998;DHT22;4044;49.814;7.828;2023-08-08T00:57:37;11.50;99.90
7998;DHT22;4044;49.814;7.828;2023-08-08T01:00:08;11.50;99.90
7998;DHT22;4044;49.814;7.828;2023-08-08T01:02:35;11.40;99.90
7998;DHT22;4044;49.814;7.828;2023-08-08T01:05:02;11.40;99.90
7998;DHT22;4044;49.814;7.828;2023-08-08T01:07:59;11.40;99.90
7998;DHT22;4044;49.814;7.828;2023-08-08T01:10:36;11.40;99.90
7998;DHT22;4044;49.814;7.828;2023-08-08T01:13:16;11.10;99.90
7998;DHT22;4044;49.814;7.828;2023-08-08T01:15:43;11.20;99.90
7998;DHT22;4044;49.814;7.828;2023-08-08T01:18:10;11.20;99.90
7998;DHT22;4044;49.814;7.828;2023-08-08T01:20:37;11.10;99.90
7998;DHT22;4044;49.814;7.828;2023-08-08T01:25:29;11.10;99.90
7998;DHT22;4044;49.814;7.828;2023-08-08T01:27:55;11.00;99.90
7998;DHT22;4044;49.814;7.828;2023-08-08T01:30:21;11.00;99.90
7998;DHT22;4044;49.814;7.828;2023-08-08T01:32:46;11.00;99.90
7998;DHT22;4044;49.814;7.828;2023-08-08T01:35:12;10.90;99.90
7998;DHT22;4044;49.814;7.828;2023-08-08T01:37:46;10.80;99.90
7998;DHT22;4044;49.814;7.828;2023-08-08T01:40:16;10.80;99.90
7998;DHT22;4044;49.814;7.828;2023-08-08T01:42:44;10.80;99.90
7998;DHT22;4044;49.814;7.828;2023-08-08T01:45:11;10.80;99.90
7998;DHT22;4044;49.814;7.828;2023-08-08T01:47:37;10.70;99.90
7998;DHT22;4044;49.814;7.828;2023-08-08T01:50:02;10.70;99.90
7998;DHT22;4044;49.814;7.828;2023-08-08T01:52:28;10.60;99.90
7998;DHT22;4044;49.814;7.828;2023-08-08T01:54:53;10.60;99.90
7998;DHT22;4044;49.814;7.828;2023-08-08T01:57:19;10.60;99.90
7998;DHT22;4044;49.814;7.828;2023-08-08T01:59:48;10.60;99.90
7998;DHT22;4044;49.814;7.828;2023-08-08T02:02:13;10.50;99.90
7998;DHT22;4044;49.814;7.828;2023-08-08T02:04:40;10.50;99.90
7998;DHT22;4044;49.814;7.828;2023-08-08T02:07:05;10.40;99.90
7998;DHT22;4044;49.814;7.828;2023-08-08T02:09:31;10.40;99.90
7998;DHT22;4044;49.814;7.828;2023-08-08T02:11:56;10.40;99.90
7998;DHT22;4044;49.814;7.828;2023-08-08T02:14:22;10.40;99.90
7998;DHT22;4044;49.814;7.828;2023-08-08T02:16:47;10.30;99.90
7998;DHT22;4044;49.814;7.828;2023-08-08T02:19:13;10.30;99.90
7998;DHT22;4044;49.814;7.828;2023-08-08T02:21:40;10.30;99.90
7998;DHT22;4044;49.814;7.828;2023-08-08T02:24:05;10.30;99.90
7998;DHT22;4044;49.814;7.828;2023-08-08T02:26:31;10.20;99.90
7998;DHT22;4044;49.814;7.828;2023-08-08T02:28:56;10.10;99.90
7998;DHT22;4044;49.814;7.828;2023-08-08T02:31:22;10.10;99.90
7998;DHT22;4044;49.814;7.828;2023-08-08T02:33:48;10.10;99.90
7998;DHT22;4044;49.814;7.828;2023-08-08T02:36:15;10.10;99.90
7998;DHT22;4044;49.814;7.828;2023-08-08T02:38:41;10.10;99.90
7998;DHT22;4044;49.814;7.828;2023-08-08T02:41:06;10.10;99.90
7998;DHT22;4044;49.814;7.828;2023-08-08T02:43:32;10.00;99.90
7998;DHT22;4044;49.814;7.828;2023-08-08T02:45:57;10.10;99.90
7998;DHT22;4044;49.814;7.828;2023-08-08T02:48:23;10.00;99.90
7998;DHT22;4044;49.814;7.828;2023-08-08T02:50:48;10.00;99.90
7998;DHT22;4044;49.814;7.828;2023-08-08T02:53:14;9.90;99.90
7998;DHT22;4044;49.814;7.828;2023-08-08T02:55:39;9.90;99.90
7998;DHT22;4044;49.814;7.828;2023-08-08T02:58:05;9.90;99.90
7998;DHT22;4044;49.814;7.828;2023-08-08T03:00:31;9.90;99.90
7998;DHT22;4044;49.814;7.828;2023-08-08T03:02:56;9.80;99.90
7998;DHT22;4044;49.814;7.828;2023-08-08T03:05:22;9.80;99.90
7998;DHT22;4044;49.814;7.828;2023-08-08T03:07:47;9.80;99.90
7998;DHT22;4044;49.814;7.828;2023-08-08T03:10:13;9.80;99.90
7998;DHT22;4044;49.814;7.828;2023-08-08T03:12:38;9.80;99.90
7998;DHT22;4044;49.814;7.828;2023-08-08T03:15:05;9.80;99.90
7998;DHT22;4044;49.814;7.828;2023-08-08T03:17:31;9.80;99.90
7998;DHT22;4044;49.814;7.828;2023-08-08T03:19:56;9.70;99.90
7998;DHT22;4044;49.814;7.828;2023-08-08T03:22:22;9.70;99.90
7998;DHT22;4044;49.814;7.828;2023-08-08T03:24:47;9.70;99.90
7998;DHT22;4044;49.814;7.828;2023-08-08T03:27:13;9.70;99.90
7998;DHT22;4044;49.814;7.828;2023-08-08T03:29:38;9.70;99.90
7998;DHT22;4044;49.814;7.828;2023-08-08T03:32:04;9.70;99.90
7998;DHT22;4044;49.814;7.828;2023-08-08T03:34:30;9.60;99.90
7998;DHT22;4044;49.814;7.828;2023-08-08T03:36:56;9.70;99.90
7998;DHT22;4044;49.814;7.828;2023-08-08T03:39:21;9.60;99.90
7998;DHT22;4044;49.814;7.828;2023-08-08T03:41:47;9.60;99.90
7998;DHT22;4044;49.814;7.828;2023-08-08T03:44:12;9.50;99.90
7998;DHT22;4044;49.814;7.828;2023-08-08T03:46:38;9.40;99.90
7998;DHT22;4044;49.814;7.828;2023-08-08T03:49:03;9.40;99.90
7998;DHT22;4044;49.814;7.828;2023-08-08T03:51:29;9.40;99.90
7998;DHT22;4044;49.814;7.828;2023-08-08T03:53:54;9.40;99.90
7998;DHT22;4044;49.814;7.828;2023-08-08T03:56:20;9.40;99.90
7998;DHT22;4044;49.814;7.828;2023-08-08T03:58:46;9.40;99.90
7998;DHT22;4044;49.814;7.828;2023-08-08T04:01:11;9.40;99.90
7998;DHT22;4044;49.814;7.828;2023-08-08T04:03:37;9.40;99.90
7998;DHT22;4044;49.814;7.828;2023-08-08T04:06:02;9.40;99.90
7998;DHT22;4044;49.814;7.828;2023-08-08T04:08:28;9.40;99.90
7998;DHT22;4044;49.814;7.828;2023-08-08T04:10:53;9.30;99.90
7998;DHT22;4044;49.814;7.828;2023-08-08T04:13:19;9.30;99.90
7998;DHT22;4044;49.814;7.828;2023-08-08T04:15:45;9.30;99.90
7998;DHT22;4044;49.814;7.828;2023-08-08T04:18:11;9.30;99.90
7998;DHT22;4044;49.814;7.828;2023-08-08T04:20:36;9.40;99.90
7998;DHT22;4044;49.814;7.828;2023-08-08T04:23:02;9.30;99.90
7998;DHT22;4044;49.814;7.828;2023-08-08T04:25:28;9.30;99.90
7998;DHT22;4044;49.814;7.828;2023-08-08T04:27:54;9.30;99.90
7998;DHT22;4044;49.814;7.828;2023-08-08T04:30:19;9.30;99.90
7998;DHT22;4044;49.814;7.828;2023-08-08T04:32:45;9.40;99.90
7998;DHT22;4044;49.814;7.828;2023-08-08T04:35:11;9.40;99.90
7998;DHT22;4044;49.814;7.828;2023-08-08T04:37:36;9.40;99.90
7998;DHT22;4044;49.814;7.828;2023-08-08T04:40:02;9.40;99.90
7998;DHT22;4044;49.814;7.828;2023-08-08T04:42:28;9.40;99.90
7998;DHT22;4044;49.814;7.828;2023-08-08T04:44:54;9.40;99.90
7998;DHT22;4044;49.814;7.828;2023-08-08T04:47:19;9.40;99.90
7998;DHT22;4044;49.814;7.828;2023-08-08T04:49:45;9.40;99.90
7998;DHT22;4044;49.814;7.828;2023-08-08T04:52:10;9.50;99.90
7998;DHT22;4044;49.814;7.828;2023-08-08T04:54:36;9.50;99.90
7998;DHT22;4044;49.814;7.828;2023-08-08T04:57:01;9.50;99.90
7998;DHT22;4044;49.814;7.828;2023-08-08T04:59:27;9.50;99.90
7998;DHT22;4044;49.814;7.828;2023-08-08T05:01:53;9.50;99.90
7998;DHT22;4044;49.814;7.828;2023-08-08T05:04:18;9.60;99.90
7998;DHT22;4044;49.814;7.828;2023-08-08T05:06:44;9.60;99.90
7998;DHT22;4044;49.814;7.828;2023-08-08T05:09:09;9.50;99.90
7998;DHT22;4044;49.814;7.828;2023-08-08T05:11:35;9.50;99.90
7998;DHT22;4044;49.814;7.828;2023-08-08T05:14:01;9.60;99.90
7998;DHT22;4044;49.814;7.828;2023-08-08T05:16:27;9.60;99.90
7998;DHT22;4044;49.814;7.828;2023-08-08T05:18:53;9.70;99.90
7998;DHT22;4044;49.814;7.828;2023-08-08T05:21:19;9.70;99.90
7998;DHT22;4044;49.814;7.828;2023-08-08T05:23:45;9.80;99.90
7998;DHT22;4044;49.814;7.828;2023-08-08T05:26:10;9.90;99.90
7998;DHT22;4044;49.814;7.828;2023-08-08T05:28:36;9.90;99.90
7998;DHT22;4044;49.814;7.828;2023-08-08T05:31:02;10.00;99.90
7998;DHT22;4044;49.814;7.828;2023-08-08T05:33:27;10.10;99.90
7998;DHT22;4044;49.814;7.828;2023-08-08T05:35:53;10.10;99.90
7998;DHT22;4044;49.814;7.828;2023-08-08T05:38:18;10.20;99.90
7998;DHT22;4044;49.814;7.828;2023-08-08T05:40:44;10.30;99.90
7998;DHT22;4044;49.814;7.828;2023-08-08T05:43:09;10.40;99.90
7998;DHT22;4044;49.814;7.828;2023-08-08T05:45:35;10.50;99.90
7998;DHT22;4044;49.814;7.828;2023-08-08T05:48:00;10.60;99.90
7998;DHT22;4044;49.814;7.828;2023-08-08T05:50:29;10.70;99.90
7998;DHT22;4044;49.814;7.828;2023-08-08T05:52:54;10.80;99.90
7998;DHT22;4044;49.814;7.828;2023-08-08T05:55:20;10.90;99.90
7998;DHT22;4044;49.814;7.828;2023-08-08T05:57:45;11.10;99.90
7998;DHT22;4044;49.814;7.828;2023-08-08T06:00:11;11.20;99.90
7998;DHT22;4044;49.814;7.828;2023-08-08T06:02:37;11.40;99.90
7998;DHT22;4044;49.814;7.828;2023-08-08T06:05:04;11.60;99.90
7998;DHT22;4044;49.814;7.828;2023-08-08T06:07:30;11.80;99.90
7998;DHT22;4044;49.814;7.828;2023-08-08T06:09:55;11.80;99.90
7998;DHT22;4044;49.814;7.828;2023-08-08T06:12:21;11.90;99.90
7998;DHT22;4044;49.814;7.828;2023-08-08T06:14:46;12.00;99.90
7998;DHT22;4044;49.814;7.828;2023-08-08T06:17:12;12.30;99.90
7998;DHT22;4044;49.814;7.828;2023-08-08T06:19:38;12.30;99.90
7998;DHT22;4044;49.814;7.828;2023-08-08T06:22:03;12.50;99.90
7998;DHT22;4044;49.814;7.828;2023-08-08T06:24:29;12.70;99.90
7998;DHT22;4044;49.814;7.828;2023-08-08T06:26:54;12.90;99.90
7998;DHT22;4044;49.814;7.828;2023-08-08T06:29:20;13.00;99.90
7998;DHT22;4044;49.814;7.828;2023-08-08T06:31:46;13.20;99.90
7998;DHT22;4044;49.814;7.828;2023-08-08T06:34:11;13.30;99.90
7998;DHT22;4044;49.814;7.828;2023-08-08T06:36:37;13.40;99.90
7998;DHT22;4044;49.814;7.828;2023-08-08T06:39:02;13.60;99.90
7998;DHT22;4044;49.814;7.828;2023-08-08T06:41:28;13.60;99.90
7998;DHT22;4044;49.814;7.828;2023-08-08T06:43:54;13.70;99.90
7998;DHT22;4044;49.814;7.828;2023-08-08T06:46:19;13.80;99.90
7998;DHT22;4044;49.814;7.828;2023-08-08T06:48:46;14.00;99.90
7998;DHT22;4044;49.814;7.828;2023-08-08T06:51:12;14.20;99.90
7998;DHT22;4044;49.814;7.828;2023-08-08T06:53:37;14.30;99.90
7998;DHT22;4044;49.814;7.828;2023-08-08T06:56:03;14.40;99.90
7998;DHT22;4044;49.814;7.828;2023-08-08T06:58:29;14.60;99.90
7998;DHT22;4044;49.814;7.828;2023-08-08T07:00:55;14.70;99.90
7998;DHT22;4044;49.814;7.828;2023-08-08T07:03:20;14.70;99.90
7998;DHT22;4044;49.814;7.828;2023-08-08T07:05:46;14.90;99.90
7998;DHT22;4044;49.814;7.828;2023-08-08T07:08:13;14.90;99.30
7998;DHT22;4044;49.814;7.828;2023-08-08T07:10:38;15.00;99.70
7998;DHT22;4044;49.814;7.828;2023-08-08T07:13:04;15.10;99.10
7998;DHT22;4044;49.814;7.828;2023-08-08T07:15:29;15.20;98.50
7998;DHT22;4044;49.814;7.828;2023-08-08T07:17:56;15.40;99.30
7998;DHT22;4044;49.814;7.828;2023-08-08T07:20:22;15.50;98.00
7998;DHT22;4044;49.814;7.828;2023-08-08T07:22:48;15.60;98.30
7998;DHT22;4044;49.814;7.828;2023-08-08T07:25:13;15.80;97.10
7998;DHT22;4044;49.814;7.828;2023-08-08T07:27:39;15.90;97.50
7998;DHT22;4044;49.814;7.828;2023-08-08T07:30:05;16.10;97.30
7998;DHT22;4044;49.814;7.828;2023-08-08T07:32:32;16.20;96.60
7998;DHT22;4044;49.814;7.828;2023-08-08T07:34:58;16.40;95.10
7998;DHT22;4044;49.814;7.828;2023-08-08T07:37:23;16.50;95.60
7998;DHT22;4044;49.814;7.828;2023-08-08T07:39:51;16.60;95.10
7998;DHT22;4044;49.814;7.828;2023-08-08T07:42:19;16.60;93.30
7998;DHT22;4044;49.814;7.828;2023-08-08T07:44:44;16.70;95.10
7998;DHT22;4044;49.814;7.828;2023-08-08T07:47:10;16.80;94.60
7998;DHT22;4044;49.814;7.828;2023-08-08T07:49:35;16.90;94.40
7998;DHT22;4044;49.814;7.828;2023-08-08T07:52:01;17.20;94.10
7998;DHT22;4044;49.814;7.828;2023-08-08T07:54:27;17.20;94.00
7998;DHT22;4044;49.814;7.828;2023-08-08T07:56:52;17.40;92.50
7998;DHT22;4044;49.814;7.828;2023-08-08T07:59:18;17.50;92.80
7998;DHT22;4044;49.814;7.828;2023-08-08T08:01:43;17.50;92.20
7998;DHT22;4044;49.814;7.828;2023-08-08T08:04:09;17.60;92.40
7998;DHT22;4044;49.814;7.828;2023-08-08T08:06:34;17.60;91.60
7998;DHT22;4044;49.814;7.828;2023-08-08T08:09:00;17.70;92.00
7998;DHT22;4044;49.814;7.828;2023-08-08T08:11:25;17.80;91.50
7998;DHT22;4044;49.814;7.828;2023-08-08T08:13:51;17.90;91.00
7998;DHT22;4044;49.814;7.828;2023-08-08T08:16:16;17.90;91.00
7998;DHT22;4044;49.814;7.828;2023-08-08T08:18:42;18.00;91.30
7998;DHT22;4044;49.814;7.828;2023-08-08T08:21:07;18.10;91.20
7998;DHT22;4044;49.814;7.828;2023-08-08T08:23:33;18.10;90.50
7998;DHT22;4044;49.814;7.828;2023-08-08T08:25:59;18.10;90.60
7998;DHT22;4044;49.814;7.828;2023-08-08T08:28:25;18.10;90.00
7998;DHT22;4044;49.814;7.828;2023-08-08T08:30:51;18.10;89.80
7998;DHT22;4044;49.814;7.828;2023-08-08T08:33:16;18.20;91.00
7998;DHT22;4044;49.814;7.828;2023-08-08T08:35:42;18.30;90.60
7998;DHT22;4044;49.814;7.828;2023-08-08T08:38:07;18.40;90.80
7998;DHT22;4044;49.814;7.828;2023-08-08T08:40:37;18.50;91.10
7998;DHT22;4044;49.814;7.828;2023-08-08T08:43:04;18.50;90.60
7998;DHT22;4044;49.814;7.828;2023-08-08T08:45:30;18.70;90.50
7998;DHT22;4044;49.814;7.828;2023-08-08T08:47:56;18.70;89.80
7998;DHT22;4044;49.814;7.828;2023-08-08T08:50:23;18.70;90.70
7998;DHT22;4044;49.814;7.828;2023-08-08T08:52:52;18.70;90.10
7998;DHT22;4044;49.814;7.828;2023-08-08T08:55:18;18.80;90.70
7998;DHT22;4044;49.814;7.828;2023-08-08T08:57:43;18.90;90.80
7998;DHT22;4044;49.814;7.828;2023-08-08T09:00:10;19.10;90.30
7998;DHT22;4044;49.814;7.828;2023-08-08T09:02:36;19.30;89.60
7998;DHT22;4044;49.814;7.828;2023-08-08T09:05:03;19.30;88.70
7998;DHT22;4044;49.814;7.828;2023-08-08T09:07:30;19.40;89.80
7998;DHT22;4044;49.814;7.828;2023-08-08T09:09:57;19.50;90.10
7998;DHT22;4044;49.814;7.828;2023-08-08T09:12:22;19.60;88.10
7998;DHT22;4044;49.814;7.828;2023-08-08T09:14:54;19.70;90.00
7998;DHT22;4044;49.814;7.828;2023-08-08T09:17:20;19.70;90.00
7998;DHT22;4044;49.814;7.828;2023-08-08T09:19:46;19.90;88.20
7998;DHT22;4044;49.814;7.828;2023-08-08T09:22:14;20.00;88.10
7998;DHT22;4044;49.814;7.828;2023-08-08T09:24:41;20.10;86.70
7998;DHT22;4044;49.814;7.828;2023-08-08T09:27:07;20.40;87.70
7998;DHT22;4044;49.814;7.828;2023-08-08T09:29:33;20.60;86.00
7998;DHT22;4044;49.814;7.828;2023-08-08T09:32:02;20.80;84.90
7998;DHT22;4044;49.814;7.828;2023-08-08T09:34:28;20.80;84.60
7998;DHT22;4044;49.814;7.828;2023-08-08T09:36:54;20.80;85.70
7998;DHT22;4044;49.814;7.828;2023-08-08T09:39:20;20.90;84.00
7998;DHT22;4044;49.814;7.828;2023-08-08T09:41:47;20.90;83.50
7998;DHT22;4044;49.814;7.828;2023-08-08T09:44:12;20.80;83.60
7998;DHT22;4044;49.814;7.828;2023-08-08T09:46:39;20.70;85.30
7998;DHT22;4044;49.814;7.828;2023-08-08T09:49:05;20.80;83.90
7998;DHT22;4044;49.814;7.828;2023-08-08T09:51:31;20.90;86.20
7998;DHT22;4044;49.814;7.828;2023-08-08T09:53:59;21.00;84.40
7998;DHT22;4044;49.814;7.828;2023-08-08T09:56:25;21.00;82.70
7998;DHT22;4044;49.814;7.828;2023-08-08T09:58:52;20.80;83.10
7998;DHT22;4044;49.814;7.828;2023-08-08T10:01:18;20.80;83.50
7998;DHT22;4044;49.814;7.828;2023-08-08T10:03:45;20.80;83.70
7998;DHT22;4044;49.814;7.828;2023-08-08T10:06:12;20.80;83.90
7998;DHT22;4044;49.814;7.828;2023-08-08T10:08:38;20.80;83.30
7998;DHT22;4044;49.814;7.828;2023-08-08T10:11:05;21.00;85.10
7998;DHT22;4044;49.814;7.828;2023-08-08T10:13:32;21.30;83.40
7998;DHT22;4044;49.814;7.828;2023-08-08T10:15:57;21.50;81.60
7998;DHT22;4044;49.814;7.828;2023-08-08T10:18:29;21.30;80.10
7998;DHT22;4044;49.814;7.828;2023-08-08T10:20:55;21.30;82.50
7998;DHT22;4044;49.814;7.828;2023-08-08T10:23:23;21.50;84.10
7998;DHT22;4044;49.814;7.828;2023-08-08T10:25:51;21.70;81.10
7998;DHT22;4044;49.814;7.828;2023-08-08T10:28:19;21.80;81.30
7998;DHT22;4044;49.814;7.828;2023-08-08T10:30:45;21.90;78.50
7998;DHT22;4044;49.814;7.828;2023-08-08T10:33:38;22.20;79.10
7998;DHT22;4044;49.814;7.828;2023-08-08T10:36:05;22.40;79.30
7998;DHT22;4044;49.814;7.828;2023-08-08T10:38:49;22.30;77.70
7998;DHT22;4044;49.814;7.828;2023-08-08T10:41:20;22.20;78.00
7998;DHT22;4044;49.814;7.828;2023-08-08T10:43:57;22.00;78.10
7998;DHT22;4044;49.814;7.828;2023-08-08T10:46:27;22.00;79.60
7998;DHT22;4044;49.814;7.828;2023-08-08T10:48:58;22.30;79.50
7998;DHT22;4044;49.814;7.828;2023-08-08T10:51:36;22.50;78.30
7998;DHT22;4044;49.814;7.828;2023-08-08T10:54:26;22.80;78.90
7998;DHT22;4044;49.814;7.828;2023-08-08T10:56:55;23.00;77.20
7998;DHT22;4044;49.814;7.828;2023-08-08T10:59:25;22.90;73.90
7998;DHT22;4044;49.814;7.828;2023-08-08T11:01:52;22.80;71.40
7998;DHT22;4044;49.814;7.828;2023-08-08T11:04:22;22.70;71.20
7998;DHT22;4044;49.814;7.828;2023-08-08T11:06:49;22.70;71.90
7998;DHT22;4044;49.814;7.828;2023-08-08T11:09:15;22.60;72.20
7998;DHT22;4044;49.814;7.828;2023-08-08T11:11:42;22.40;72.30
7998;DHT22;4044;49.814;7.828;2023-08-08T11:14:10;22.50;72.60
7998;DHT22;4044;49.814;7.828;2023-08-08T11:16:36;22.50;73.00
7998;DHT22;4044;49.814;7.828;2023-08-08T11:19:02;22.40;72.00
7998;DHT22;4044;49.814;7.828;2023-08-08T11:21:28;22.50;73.10
7998;DHT22;4044;49.814;7.828;2023-08-08T11:23:54;22.50;70.60
7998;DHT22;4044;49.814;7.828;2023-08-08T11:26:19;22.60;69.60
7998;DHT22;4044;49.814;7.828;2023-08-08T11:28:51;22.80;70.50
7998;DHT22;4044;49.814;7.828;2023-08-08T11:31:20;23.10;70.90
7998;DHT22;4044;49.814;7.828;2023-08-08T11:33:48;23.50;72.00
7998;DHT22;4044;49.814;7.828;2023-08-08T11:36:14;23.60;70.80
7998;DHT22;4044;49.814;7.828;2023-08-08T11:38:40;23.80;68.80
7998;DHT22;4044;49.814;7.828;2023-08-08T11:41:09;23.60;67.40
7998;DHT22;4044;49.814;7.828;2023-08-08T11:43:37;23.60;70.00
7998;DHT22;4044;49.814;7.828;2023-08-08T11:46:03;23.50;67.50
7998;DHT22;4044;49.814;7.828;2023-08-08T11:48:28;23.70;68.70
7998;DHT22;4044;49.814;7.828;2023-08-08T11:50:54;23.50;67.20
7998;DHT22;4044;49.814;7.828;2023-08-08T11:53:20;23.00;67.70
7998;DHT22;4044;49.814;7.828;2023-08-08T11:55:46;23.00;70.20
7998;DHT22;4044;49.814;7.828;2023-08-08T11:58:14;23.10;67.50
7998;DHT22;4044;49.814;7.828;2023-08-08T12:00:42;23.50;68.90
7998;DHT22;4044;49.814;7.828;2023-08-08T12:03:11;23.40;69.70
7998;DHT22;4044;49.814;7.828;2023-08-08T12:05:39;23.40;68.10
7998;DHT22;4044;49.814;7.828;2023-08-08T12:08:06;23.60;67.70
7998;DHT22;4044;49.814;7.828;2023-08-08T12:10:32;24.20;69.40
7998;DHT22;4044;49.814;7.828;2023-08-08T12:12:58;24.60;65.20
7998;DHT22;4044;49.814;7.828;2023-08-08T12:15:29;24.60;66.00
7998;DHT22;4044;49.814;7.828;2023-08-08T12:17:57;25.80;66.00
7998;DHT22;4044;49.814;7.828;2023-08-08T12:20:22;25.90;62.90
7998;DHT22;4044;49.814;7.828;2023-08-08T12:22:48;25.50;63.50
7998;DHT22;4044;49.814;7.828;2023-08-08T12:25:13;25.10;61.80
7998;DHT22;4044;49.814;7.828;2023-08-08T12:27:39;24.30;64.80
7998;DHT22;4044;49.814;7.828;2023-08-08T12:30:06;24.40;63.60
7998;DHT22;4044;49.814;7.828;2023-08-08T12:32:32;24.40;64.50
7998;DHT22;4044;49.814;7.828;2023-08-08T12:34:58;24.30;64.20
7998;DHT22;4044;49.814;7.828;2023-08-08T12:37:24;24.00;65.30
7998;DHT22;4044;49.814;7.828;2023-08-08T12:39:49;23.80;65.00
7998;DHT22;4044;49.814;7.828;2023-08-08T12:42:16;23.70;65.40
7998;DHT22;4044;49.814;7.828;2023-08-08T12:44:42;23.70;65.50
7998;DHT22;4044;49.814;7.828;2023-08-08T12:47:08;23.60;65.30
7998;DHT22;4044;49.814;7.828;2023-08-08T12:49:33;23.40;66.20
7998;DHT22;4044;49.814;7.828;2023-08-08T12:51:59;23.40;65.70
7998;DHT22;4044;49.814;7.828;2023-08-08T12:54:24;23.60;65.90
7998;DHT22;4044;49.814;7.828;2023-08-08T12:56:51;23.60;64.60
7998;DHT22;4044;49.814;7.828;2023-08-08T12:59:16;23.70;64.40
7998;DHT22;4044;49.814;7.828;2023-08-08T13:01:42;23.50;66.30
7998;DHT22;4044;49.814;7.828;2023-08-08T13:04:07;23.40;66.40
7998;DHT22;4044;49.814;7.828;2023-08-08T13:06:33;23.10;66.00
7998;DHT22;4044;49.814;7.828;2023-08-08T13:08:59;23.30;68.60
7998;DHT22;4044;49.814;7.828;2023-08-08T13:11:26;23.60;69.70
7998;DHT22;4044;49.814;7.828;2023-08-08T13:13:51;23.20;66.70
7998;DHT22;4044;49.814;7.828;2023-08-08T13:16:17;23.20;69.20
7998;DHT22;4044;49.814;7.828;2023-08-08T13:18:42;23.20;67.50
7998;DHT22;4044;49.814;7.828;2023-08-08T13:21:08;23.30;68.80
7998;DHT22;4044;49.814;7.828;2023-08-08T13:23:35;23.20;68.80
7998;DHT22;4044;49.814;7.828;2023-08-08T13:26:01;23.10;68.50
7998;DHT22;4044;49.814;7.828;2023-08-08T13:28:29;22.90;68.30
7998;DHT22;4044;49.814;7.828;2023-08-08T13:30:54;22.60;68.90
7998;DHT22;4044;49.814;7.828;2023-08-08T13:33:20;22.80;69.50
7998;DHT22;4044;49.814;7.828;2023-08-08T13:35:46;23.80;67.90
7998;DHT22;4044;49.814;7.828;2023-08-08T13:38:12;24.20;68.50
7998;DHT22;4044;49.814;7.828;2023-08-08T13:40:41;24.40;67.90
7998;DHT22;4044;49.814;7.828;2023-08-08T13:43:06;24.30;68.40
7998;DHT22;4044;49.814;7.828;2023-08-08T13:45:32;23.90;68.40
7998;DHT22;4044;49.814;7.828;2023-08-08T13:47:57;23.10;69.20
7998;DHT22;4044;49.814;7.828;2023-08-08T13:50:23;22.40;72.10
7998;DHT22;4044;49.814;7.828;2023-08-08T13:52:48;22.10;72.90
7998;DHT22;4044;49.814;7.828;2023-08-08T13:55:14;22.00;73.10
7998;DHT22;4044;49.814;7.828;2023-08-08T13:57:40;21.90;73.30
7998;DHT22;4044;49.814;7.828;2023-08-08T14:00:06;21.80;74.10
7998;DHT22;4044;49.814;7.828;2023-08-08T14:02:32;21.80;75.00
7998;DHT22;4044;49.814;7.828;2023-08-08T14:04:58;21.60;74.40
7998;DHT22;4044;49.814;7.828;2023-08-08T14:07:24;21.60;75.10
7998;DHT22;4044;49.814;7.828;2023-08-08T14:09:49;21.90;75.20
7998;DHT22;4044;49.814;7.828;2023-08-08T14:12:15;21.90;74.20
7998;DHT22;4044;49.814;7.828;2023-08-08T14:14:42;21.90;74.70
7998;DHT22;4044;49.814;7.828;2023-08-08T14:17:07;22.20;75.10
7998;DHT22;4044;49.814;7.828;2023-08-08T14:19:33;22.20;74.90
7998;DHT22;4044;49.814;7.828;2023-08-08T14:21:59;22.40;75.10
7998;DHT22;4044;49.814;7.828;2023-08-08T14:24:24;22.60;73.20
7998;DHT22;4044;49.814;7.828;2023-08-08T14:26:50;22.40;74.30
7998;DHT22;4044;49.814;7.828;2023-08-08T14:29:16;22.40;74.30
7998;DHT22;4044;49.814;7.828;2023-08-08T14:31:41;22.50;75.00
7998;DHT22;4044;49.814;7.828;2023-08-08T14:34:07;22.60;75.50
7998;DHT22;4044;49.814;7.828;2023-08-08T14:36:32;22.20;74.40
7998;DHT22;4044;49.814;7.828;2023-08-08T14:38:58;21.80;75.50
7998;DHT22;4044;49.814;7.828;2023-08-08T14:41:23;21.60;76.20
7998;DHT22;4044;49.814;7.828;2023-08-08T14:43:49;21.30;76.50
7998;DHT22;4044;49.814;7.828;2023-08-08T14:46:14;21.10;77.60
7998;DHT22;4044;49.814;7.828;2023-08-08T14:48:40;20.80;77.70
7998;DHT22;4044;49.814;7.828;2023-08-08T14:51:06;20.70;78.30
7998;DHT22;4044;49.814;7.828;2023-08-08T14:53:31;20.50;79.90
7998;DHT22;4044;49.814;7.828;2023-08-08T14:55:57;20.30;80.00
7998;DHT22;4044;49.814;7.828;2023-08-08T14:58:22;20.30;80.50
7998;DHT22;4044;49.814;7.828;2023-08-08T15:00:48;20.40;80.70
7998;DHT22;4044;49.814;7.828;2023-08-08T15:03:14;20.40;81.20
7998;DHT22;4044;49.814;7.828;2023-08-08T15:05:39;20.20;82.40
7998;DHT22;4044;49.814;7.828;2023-08-08T15:08:05;20.00;83.10
7998;DHT22;4044;49.814;7.828;2023-08-08T15:10:31;19.90;83.50
7998;DHT22;4044;49.814;7.828;2023-08-08T15:12:57;20.00;82.10
7998;DHT22;4044;49.814;7.828;2023-08-08T15:15:22;20.20;82.30
7998;DHT22;4044;49.814;7.828;2023-08-08T15:17:49;20.30;81.30
7998;DHT22;4044;49.814;7.828;2023-08-08T15:20:15;20.90;80.70
7998;DHT22;4044;49.814;7.828;2023-08-08T15:22:41;22.00;80.10
7998;DHT22;4044;49.814;7.828;2023-08-08T15:25:06;23.20;79.40
7998;DHT22;4044;49.814;7.828;2023-08-08T15:27:32;24.50;74.90
7998;DHT22;4044;49.814;7.828;2023-08-08T15:29:58;25.60;72.00
7998;DHT22;4044;49.814;7.828;2023-08-08T15:32:23;25.50;73.00
7998;DHT22;4044;49.814;7.828;2023-08-08T15:34:49;26.10;69.90
7998;DHT22;4044;49.814;7.828;2023-08-08T15:37:14;26.40;67.70
7998;DHT22;4044;49.814;7.828;2023-08-08T15:39:40;26.20;67.80
7998;DHT22;4044;49.814;7.828;2023-08-08T15:42:06;26.70;66.40
7998;DHT22;4044;49.814;7.828;2023-08-08T15:44:31;26.90;68.90
7998;DHT22;4044;49.814;7.828;2023-08-08T15:46:57;26.60;66.60
7998;DHT22;4044;49.814;7.828;2023-08-08T15:49:23;26.30;66.60
7998;DHT22;4044;49.814;7.828;2023-08-08T15:51:48;26.10;67.80
7998;DHT22;4044;49.814;7.828;2023-08-08T15:54:14;26.40;67.70
7998;DHT22;4044;49.814;7.828;2023-08-08T15:56:40;26.70;68.30
7998;DHT22;4044;49.814;7.828;2023-08-08T15:59:06;26.70;65.70
7998;DHT22;4044;49.814;7.828;2023-08-08T16:01:32;26.20;69.50